createdAt,value
2019-02-06T00:00:43.897Z,63.73
2019-02-06T00:03:16.281Z,95.65
2019-02-06T00:05:48.574Z,105.30
2019-02-06T00:08:19.295Z,62.38
2019-02-06T00:10:50.025Z,115.62
2019-02-06T00:13:20.891Z,70.17
2019-02-06T00:15:51.936Z,41.13
2019-02-06T00:18:22.842Z,92.12
2019-02-06T00:20:54.479Z,79.65
2019-02-06T00:23:25.149Z,91.10
2019-02-06T00:25:55.969Z,89.07
2019-02-06T00:28:26.802Z,103.90
2019-02-06T00:30:57.454Z,92.75
2019-02-06T00:33:28.124Z,91.92
2019-02-06T00:35:58.980Z,92.35
2019-02-06T00:38:29.664Z,96.57
2019-02-06T00:41:00.454Z,87.92
2019-02-06T00:43:31.404Z,97.25
2019-02-06T00:46:02.120Z,98.25
2019-02-06T00:48:32.867Z,71.30
2019-02-06T00:51:03.520Z,89.40
2019-02-06T00:53:34.189Z,104.50
2019-02-06T00:56:05.326Z,37.63
2019-02-06T00:58:35.999Z,51.70
2019-02-06T01:01:06.662Z,74.35
2019-02-06T01:03:37.416Z,51.53
2019-02-06T01:06:09.100Z,88.50
2019-02-06T01:08:39.850Z,52.45
2019-02-06T01:11:14.946Z,77.90
2019-02-06T01:13:45.617Z,97.65
2019-02-06T01:16:16.259Z,85.35
2019-02-06T01:18:47.011Z,95.90
2019-02-06T01:21:18.373Z,94.15
2019-02-06T01:23:49.573Z,85.57
2019-02-06T01:26:20.286Z,45.80
2019-02-06T01:28:50.968Z,37.55
2019-02-06T01:31:22.158Z,53.60
2019-02-06T01:33:52.914Z,84.10
2019-02-06T01:36:23.652Z,70.20
2019-02-06T01:38:55.910Z,60.25
2019-02-06T01:41:26.556Z,83.27
2019-02-06T01:43:57.301Z,90.77
2019-02-06T01:46:27.945Z,78.15
2019-02-06T01:48:58.618Z,68.92
2019-02-06T01:51:29.611Z,87.80
2019-02-06T01:54:00.362Z,61.15
2019-02-06T01:56:31.003Z,71.25
2019-02-06T01:59:01.744Z,56.98
2019-02-06T02:01:32.463Z,69.25
2019-02-06T02:04:04.870Z,67.10
2019-02-06T02:06:35.505Z,64.90
2019-02-06T02:09:08.318Z,27.48
2019-02-06T02:11:38.964Z,58.83
2019-02-06T02:14:09.634Z,86.45
2019-02-06T02:16:40.457Z,68.17
2019-02-06T02:19:12.724Z,72.30
2019-02-06T02:21:44.237Z,79.30
2019-02-06T02:24:14.909Z,44.15
2019-02-06T02:26:45.553Z,78.42
2019-02-06T02:29:16.227Z,52.88
2019-02-06T02:31:49.029Z,75.35
2019-02-06T02:34:19.782Z,82.10
2019-02-06T02:36:50.426Z,75.20
2019-02-06T02:39:21.177Z,34.60
2019-02-06T02:41:51.982Z,72.22
2019-02-06T02:44:22.940Z,81.00
2019-02-06T02:46:53.653Z,57.40
2019-02-06T02:49:25.841Z,64.97
2019-02-06T02:51:56.570Z,66.37
2019-02-06T02:54:27.351Z,79.77
2019-02-06T02:56:58.470Z,85.57
2019-02-06T02:59:30.727Z,81.02
2019-02-06T03:02:05.851Z,76.02
2019-02-06T03:04:36.594Z,76.87
2019-02-06T03:07:07.234Z,61.90
2019-02-06T03:09:38.394Z,68.60
2019-02-06T03:12:09.278Z,79.22
2019-02-06T03:14:40.026Z,78.15
2019-02-06T03:17:10.748Z,87.17
2019-02-06T03:19:41.492Z,75.87
2019-02-06T03:22:13.087Z,50.58
2019-02-06T03:24:43.838Z,77.20
2019-02-06T03:27:14.625Z,71.22
2019-02-06T03:29:45.298Z,72.37
2019-02-06T03:32:15.941Z,54.20
2019-02-06T03:34:46.762Z,72.50
2019-02-06T03:37:17.847Z,70.12
2019-02-06T03:39:50.106Z,62.03
2019-02-06T03:42:22.339Z,59.00
2019-02-06T03:44:53.086Z,83.27
2019-02-06T03:47:23.801Z,75.22
2019-02-06T03:49:54.941Z,66.00
2019-02-06T03:52:25.665Z,76.02
2019-02-06T03:54:56.409Z,65.78
2019-02-06T03:57:27.056Z,70.72
2019-02-06T03:59:57.878Z,71.02
2019-02-06T04:02:28.666Z,80.80
2019-02-06T04:05:00.861Z,79.85
2019-02-06T04:07:33.221Z,71.87
2019-02-06T04:10:14.836Z,69.67
2019-02-06T04:12:45.564Z,44.27
2019-02-06T04:15:16.759Z,70.72
2019-02-06T04:17:47.526Z,55.20
2019-02-06T04:20:18.292Z,70.97
2019-02-06T04:22:49.034Z,72.10
2019-02-06T04:25:19.783Z,61.92
2019-02-06T04:27:50.426Z,65.72
2019-02-06T04:30:21.098Z,70.12
2019-02-06T04:32:51.816Z,80.28
2019-02-06T04:35:22.573Z,63.73
2019-02-06T04:37:54.798Z,69.22
2019-02-06T04:40:27.074Z,71.87
2019-02-06T04:42:57.790Z,77.62
2019-02-06T04:45:28.639Z,65.80
2019-02-06T04:47:59.431Z,66.95
2019-02-06T04:50:30.185Z,59.35
2019-02-06T04:53:00.894Z,55.52
2019-02-06T04:55:31.950Z,70.28
2019-02-06T04:58:02.601Z,78.80
2019-02-06T05:00:33.398Z,75.67
2019-02-06T05:03:05.556Z,77.78
2019-02-06T05:05:39.864Z,75.10
2019-02-06T05:08:10.974Z,106.17
2019-02-06T05:10:41.741Z,70.35
2019-02-06T05:13:12.608Z,75.17
2019-02-06T05:15:43.415Z,75.92
2019-02-06T05:18:14.068Z,78.55
2019-02-06T05:20:44.745Z,81.15
2019-02-06T05:23:15.483Z,80.05
2019-02-06T05:25:46.231Z,73.00
2019-02-06T05:28:18.559Z,82.53
2019-02-06T05:30:49.314Z,91.28
2019-02-06T05:33:20.126Z,81.37
2019-02-06T05:35:51.182Z,86.42
2019-02-06T05:38:21.827Z,88.87
2019-02-06T05:40:52.500Z,69.77
2019-02-06T05:43:23.358Z,77.27
2019-02-06T05:45:54.043Z,67.65
2019-02-06T05:48:24.763Z,70.60
2019-02-06T05:50:55.509Z,51.48
2019-02-06T05:53:26.206Z,78.30
2019-02-06T05:55:56.958Z,78.17
2019-02-06T05:58:27.603Z,78.83
2019-02-06T06:00:58.441Z,81.92
2019-02-06T06:03:29.090Z,69.67
2019-02-06T06:05:59.764Z,65.78
2019-02-06T06:08:30.486Z,54.95
2019-02-06T06:11:01.159Z,25.80
2019-02-06T06:13:31.974Z,49.50
2019-02-06T06:16:02.799Z,74.67
2019-02-06T06:18:37.036Z,109.50
2019-02-06T06:21:07.789Z,48.73
2019-02-06T06:23:39.360Z,68.70
2019-02-06T06:26:10.042Z,72.32
2019-02-06T06:28:40.838Z,77.08
2019-02-06T06:31:11.521Z,83.50
2019-02-06T06:33:42.233Z,95.50
2019-02-06T06:36:13.086Z,81.75
2019-02-06T06:38:43.802Z,85.85
2019-02-06T06:41:14.479Z,74.60
2019-02-06T06:43:45.129Z,87.95
2019-02-06T06:46:16.273Z,75.03
2019-02-06T06:48:46.962Z,85.00
2019-02-06T06:51:17.638Z,81.63
2019-02-06T06:53:48.283Z,94.75
2019-02-06T06:56:20.468Z,89.10
2019-02-06T06:58:51.662Z,86.40
2019-02-06T07:01:22.337Z,89.55
2019-02-06T07:03:53.573Z,110.28
2019-02-06T07:06:24.327Z,84.77
2019-02-06T07:08:54.970Z,94.42
2019-02-06T07:11:25.720Z,81.82
2019-02-06T07:13:56.438Z,83.65
2019-02-06T07:16:27.186Z,84.50
2019-02-06T07:18:57.906Z,75.12
2019-02-06T07:21:28.723Z,88.72
2019-02-06T07:24:03.229Z,81.20
2019-02-06T07:26:33.988Z,79.55
2019-02-06T07:29:04.697Z,78.02
2019-02-06T07:31:36.895Z,83.62
2019-02-06T07:34:09.615Z,91.47
2019-02-06T07:36:40.425Z,86.75
2019-02-06T07:39:11.450Z,90.53
2019-02-06T07:41:42.122Z,72.80
2019-02-06T07:44:13.430Z,79.42
2019-02-06T07:46:44.331Z,90.60
2019-02-06T07:49:15.070Z,92.02
2019-02-06T07:51:45.752Z,87.78
2019-02-06T07:54:16.498Z,85.35
2019-02-06T07:56:47.244Z,91.45
2019-02-06T07:59:17.885Z,88.17
2019-02-06T08:01:48.566Z,87.55
2019-02-06T08:04:19.231Z,85.35
2019-02-06T08:06:50.376Z,90.55
2019-02-06T08:09:21.093Z,89.30
2019-02-06T08:11:53.411Z,85.07
2019-02-06T08:14:25.734Z,43.98
2019-02-06T08:16:56.409Z,84.40
2019-02-06T08:19:27.525Z,75.55
2019-02-06T08:21:58.298Z,74.00
2019-02-06T08:24:28.951Z,73.95
2019-02-06T08:26:59.701Z,72.22
2019-02-06T08:29:32.099Z,83.70
2019-02-06T08:32:02.882Z,57.03
2019-02-06T08:34:33.707Z,76.87
2019-02-06T08:37:04.456Z,35.43
2019-02-06T08:39:35.111Z,61.70
2019-02-06T08:42:05.853Z,80.47
2019-02-06T08:44:36.503Z,68.52
2019-02-06T08:47:07.248Z,85.20
2019-02-06T08:49:39.074Z,65.75
2019-02-06T08:52:10.025Z,70.37
2019-02-06T08:54:40.674Z,53.58
2019-02-06T08:57:11.426Z,66.60
2019-02-06T08:59:42.515Z,77.85
2019-02-06T09:02:13.270Z,86.30
2019-02-06T09:04:55.234Z,40.75
2019-02-06T09:07:19.628Z,84.65
2019-02-06T09:09:51.953Z,86.40
2019-02-06T09:12:23.002Z,57.03
2019-02-06T09:14:53.670Z,69.70
2019-02-06T09:17:24.485Z,87.80
2019-02-06T09:19:55.215Z,58.85
2019-02-06T09:22:27.589Z,79.53
2019-02-06T09:24:58.969Z,74.03
2019-02-06T09:27:29.729Z,65.97
2019-02-06T09:30:00.479Z,43.73
2019-02-06T09:32:31.197Z,73.35
2019-02-06T09:35:03.374Z,36.83
2019-02-06T09:37:34.139Z,54.83
2019-02-06T09:40:12.471Z,82.70
2019-02-06T09:42:43.286Z,47.15
2019-02-06T09:45:14.787Z,58.42
2019-02-06T09:47:45.546Z,75.05
2019-02-06T09:50:19.415Z,40.85
2019-02-06T09:52:50.166Z,64.70
2019-02-06T09:55:20.809Z,38.40
2019-02-06T09:57:51.507Z,54.40
2019-02-06T10:00:30.026Z,43.33
2019-02-06T10:03:00.785Z,43.33
2019-02-06T10:05:32.946Z,45.43
2019-02-06T10:08:03.630Z,50.43
2019-02-06T10:10:34.275Z,44.58
2019-02-06T10:13:06.711Z,76.30
2019-02-06T10:15:38.843Z,63.13
2019-02-06T10:18:09.535Z,42.15
2019-02-06T10:20:48.335Z,53.42
2019-02-06T10:23:19.092Z,36.38
2019-02-06T10:25:49.881Z,69.07
2019-02-06T10:28:20.637Z,35.55
2019-02-06T10:30:51.284Z,52.35
2019-02-06T10:33:21.959Z,75.70
2019-02-06T10:35:52.697Z,70.80
2019-02-06T10:38:26.168Z,54.08
2019-02-06T10:40:56.831Z,53.60
2019-02-06T10:43:32.180Z,67.10
2019-02-06T10:45:59.971Z,53.78
2019-02-06T10:48:30.670Z,58.17
2019-02-06T10:51:01.319Z,57.35
2019-02-06T10:53:32.066Z,56.60
2019-02-06T10:56:03.557Z,36.80
2019-02-06T10:58:34.301Z,58.25
2019-02-06T11:01:04.962Z,40.38
2019-02-06T11:03:37.409Z,63.85
2019-02-06T11:06:08.118Z,32.53
2019-02-06T11:08:38.798Z,48.10
2019-02-06T11:11:09.524Z,56.80
2019-02-06T11:13:40.269Z,30.90
2019-02-06T11:16:10.917Z,47.08
2019-02-06T11:18:44.446Z,48.60
2019-02-06T11:21:13.944Z,57.13
2019-02-06T11:23:45.796Z,41.15
2019-02-06T11:26:17.336Z,48.35
2019-02-06T11:28:48.090Z,54.75
2019-02-06T11:31:18.811Z,54.65
2019-02-06T11:33:50.226Z,45.15
2019-02-06T11:36:24.170Z,29.77
2019-02-06T11:38:53.531Z,46.00
2019-02-06T11:41:24.257Z,43.40
2019-02-06T11:43:54.944Z,40.58
2019-02-06T11:46:25.671Z,41.08
2019-02-06T11:48:58.114Z,46.20
2019-02-06T11:51:28.833Z,36.13
2019-02-06T11:53:59.584Z,48.65
2019-02-06T11:56:30.302Z,31.37
2019-02-06T11:59:00.983Z,58.55
2019-02-06T12:01:32.069Z,41.20
2019-02-06T12:04:02.833Z,43.80
2019-02-06T12:06:33.622Z,48.15
2019-02-06T12:09:07.658Z,53.92
2019-02-06T12:11:38.385Z,55.65
2019-02-06T12:14:10.653Z,53.05
2019-02-06T12:16:41.371Z,48.13
2019-02-06T12:19:12.128Z,45.67
2019-02-06T12:21:42.846Z,24.55
2019-02-06T12:24:13.541Z,36.53
2019-02-06T12:26:46.741Z,28.02
2019-02-06T12:29:17.809Z,39.73
2019-02-06T12:31:48.537Z,31.75
2019-02-06T12:34:20.733Z,41.20
2019-02-06T12:36:51.381Z,33.73
2019-02-06T12:39:22.780Z,37.55
2019-02-06T12:41:53.591Z,33.85
2019-02-06T12:44:24.585Z,44.27
2019-02-06T12:46:55.233Z,24.77
2019-02-06T12:49:25.920Z,27.40
2019-02-06T12:51:57.979Z,33.08
2019-02-06T12:54:30.185Z,24.80
2019-02-06T12:57:00.902Z,17.40
2019-02-06T12:59:31.650Z,21.17
2019-02-06T13:02:02.384Z,33.92
2019-02-06T13:04:33.134Z,25.10
2019-02-06T13:07:03.949Z,27.00
2019-02-06T13:09:34.626Z,12.95
2019-02-06T13:12:05.551Z,28.52
2019-02-06T13:14:39.210Z,28.73
2019-02-06T13:17:09.938Z,34.88
2019-02-06T13:19:40.618Z,43.48
2019-02-06T13:22:11.334Z,43.02
2019-02-06T13:24:42.010Z,28.05
2019-02-06T13:27:12.810Z,33.88
2019-02-06T13:29:43.571Z,32.35
2019-02-06T13:32:15.804Z,32.13
2019-02-06T13:34:46.483Z,34.23
2019-02-06T13:37:17.210Z,21.95
2019-02-06T13:39:48.224Z,18.42
2019-02-06T13:42:19.123Z,21.15
2019-02-06T13:44:49.798Z,14.43
2019-02-06T13:47:20.429Z,9.80
2019-02-06T13:49:51.167Z,7.35
2019-02-06T13:52:22.187Z,7.78
2019-02-06T13:54:54.437Z,10.25
2019-02-06T13:57:33.345Z,17.00
2019-02-06T13:59:57.523Z,22.30
2019-02-06T14:02:28.250Z,21.77
2019-02-06T14:04:59.368Z,25.60
2019-02-06T14:07:30.099Z,24.15
2019-02-06T14:10:00.789Z,28.23
2019-02-06T14:12:31.519Z,30.52
2019-02-06T14:15:02.294Z,34.13
2019-02-06T14:17:34.091Z,30.90
2019-02-06T14:20:08.070Z,30.62
2019-02-06T14:22:38.717Z,28.40
2019-02-06T14:25:18.299Z,31.12
2019-02-06T14:27:53.277Z,34.35
2019-02-06T14:30:38.988Z,36.88
2019-02-06T14:33:22.167Z,31.45
2019-02-06T14:35:58.742Z,43.33
2019-02-06T14:38:47.884Z,43.35
2019-02-06T14:41:33.578Z,34.73
2019-02-06T14:44:24.385Z,35.68
2019-02-06T14:47:04.478Z,35.03
2019-02-06T14:49:59.206Z,34.23
2019-02-06T14:52:48.403Z,35.80
2019-02-06T14:55:43.467Z,46.08
2019-02-06T14:58:23.307Z,54.48
2019-02-06T15:01:18.602Z,39.58
2019-02-06T15:04:04.279Z,33.18
2019-02-06T15:06:50.192Z,26.85
2019-02-06T15:09:42.673Z,31.05
2019-02-06T15:12:33.375Z,40.73
2019-02-06T15:15:22.714Z,29.63
2019-02-06T15:18:02.381Z,28.25
2019-02-06T15:20:48.633Z,31.77
2019-02-06T15:23:32.611Z,40.05
2019-02-06T15:26:19.579Z,44.33
2019-02-06T15:28:53.555Z,42.33
2019-02-06T15:31:35.782Z,40.73
2019-02-06T15:34:21.586Z,48.98
2019-02-06T15:36:55.659Z,68.33
2019-02-06T15:39:46.355Z,63.08
2019-02-06T15:42:26.139Z,94.07
2019-02-06T15:45:00.430Z,117.82
2019-02-06T15:47:40.387Z,96.95
2019-02-06T15:50:27.227Z,90.53
2019-02-06T15:53:03.996Z,101.85
2019-02-06T15:55:58.878Z,123.80
2019-02-06T15:58:38.646Z,98.03
2019-02-06T16:01:26.966Z,94.22
2019-02-06T16:04:35.957Z,66.62
2019-02-06T16:07:43.453Z,98.10
2019-02-06T16:10:40.238Z,77.40
2019-02-06T16:13:16.884Z,73.85
2019-02-06T16:15:51.088Z,88.52
2019-02-06T16:18:35.546Z,93.35
2019-02-06T16:21:21.623Z,101.35
2019-02-06T16:23:57.118Z,94.55
2019-02-06T16:26:43.156Z,107.72
2019-02-06T16:29:40.771Z,116.03
2019-02-06T16:32:31.488Z,143.13
2019-02-06T16:35:11.379Z,246.35
2019-02-06T16:37:54.226Z,367.15
2019-02-06T16:40:34.032Z,491.30
2019-02-06T16:43:31.677Z,512.23
2019-02-06T16:46:17.552Z,465.55
2019-02-06T16:49:06.618Z,282.12
2019-02-06T16:51:40.537Z,195.43
2019-02-06T16:54:48.066Z,190.32
2019-02-06T16:57:41.332Z,248.25
2019-02-06T17:00:39.651Z,220.95
2019-02-06T17:03:34.406Z,203.58
2019-02-06T17:06:20.458Z,243.22
2019-02-06T17:09:18.696Z,352.02
2019-02-06T17:12:04.506Z,277.95
2019-02-06T17:14:54.927Z,216.30
2019-02-06T17:17:38.023Z,273.90
2019-02-06T17:20:28.369Z,498.23
2019-02-06T17:23:20.175Z,384.87
2019-02-06T17:26:21.170Z,504.48
2019-02-06T17:29:13.009Z,345.37
2019-02-06T17:32:01.898Z,360.05
2019-02-06T17:34:44.818Z,397.72
2019-02-06T17:37:47.414Z,528.45
2019-02-06T17:40:30.501Z,477.90
2019-02-06T17:43:16.318Z,556.37
2019-02-06T17:46:14.571Z,581.23
2019-02-06T17:48:57.298Z,508.07
2019-02-06T17:51:46.354Z,451.90
2019-02-06T17:54:20.755Z,467.53
2019-02-06T17:56:51.528Z,457.52
2019-02-06T17:59:22.206Z,484.65
2019-02-06T18:01:52.990Z,529.35
2019-02-06T18:04:23.742Z,538.10
2019-02-06T18:06:54.524Z,504.80
2019-02-06T18:09:25.721Z,487.88
2019-02-06T18:11:56.488Z,571.77
2019-02-06T18:14:27.235Z,587.52
2019-02-06T18:16:57.944Z,687.33
2019-02-06T18:19:31.831Z,762.48
2019-02-06T18:22:02.610Z,746.90
2019-02-06T18:24:33.363Z,600.02
2019-02-06T18:27:04.881Z,553.88
2019-02-06T18:29:35.633Z,534.22
2019-02-06T18:32:07.398Z,489.52
2019-02-06T18:34:39.721Z,401.45
2019-02-06T18:37:11.890Z,800.95
2019-02-06T18:39:42.708Z,1084.18
2019-02-06T18:42:13.493Z,772.90
2019-02-06T18:44:44.243Z,733.10
2019-02-06T18:47:15.193Z,678.12
2019-02-06T18:49:46.242Z,387.57
2019-02-06T18:52:20.490Z,324.88
2019-02-06T18:54:50.628Z,276.30
2019-02-06T18:57:21.409Z,273.13
2019-02-06T18:59:52.159Z,212.05
2019-02-06T19:02:22.944Z,225.90
2019-02-06T19:04:54.027Z,449.20
2019-02-06T19:07:25.027Z,315.70
2019-02-06T19:09:55.818Z,199.95
2019-02-06T19:12:26.777Z,194.57
2019-02-06T19:14:58.936Z,183.37
2019-02-06T19:17:29.767Z,175.62
2019-02-06T19:20:00.509Z,242.47
2019-02-06T19:22:33.029Z,162.77
2019-02-06T19:25:05.742Z,141.82
2019-02-06T19:27:36.523Z,227.80
2019-02-06T19:30:22.434Z,195.50
2019-02-06T19:32:54.229Z,193.30
2019-02-06T19:35:24.983Z,177.65
2019-02-06T19:37:55.760Z,248.68
2019-02-06T19:40:26.503Z,600.80
2019-02-06T19:43:02.251Z,679.25
2019-02-06T19:45:30.742Z,241.93
2019-02-06T19:48:01.927Z,301.23
2019-02-06T19:50:38.686Z,293.23
2019-02-06T19:53:09.467Z,264.75
2019-02-06T19:55:40.284Z,272.17
2019-02-06T19:58:11.547Z,283.15
2019-02-06T20:00:42.299Z,350.15
2019-02-06T20:03:13.157Z,358.90
2019-02-06T20:05:43.907Z,345.15
2019-02-06T20:08:14.692Z,421.35
2019-02-06T20:10:50.430Z,398.23
2019-02-06T20:13:21.210Z,444.30
2019-02-06T20:15:52.266Z,456.65
2019-02-06T20:18:23.057Z,480.50
2019-02-06T20:20:53.808Z,559.22
2019-02-06T20:23:25.888Z,695.00
2019-02-06T20:25:56.638Z,806.30
2019-02-06T20:28:27.426Z,794.87
2019-02-06T20:30:58.475Z,676.70
2019-02-06T20:33:29.321Z,560.70
2019-02-06T20:36:00.071Z,740.12
2019-02-06T20:38:30.849Z,590.77
2019-02-06T20:41:01.667Z,546.13
2019-02-06T20:43:32.448Z,420.18
2019-02-06T20:46:03.498Z,413.83
2019-02-06T20:48:34.284Z,476.98
2019-02-06T20:51:05.097Z,578.02
2019-02-06T20:53:35.942Z,485.52
2019-02-06T20:56:06.766Z,393.95
2019-02-06T20:58:37.549Z,488.90
2019-02-06T21:01:08.605Z,524.55
2019-02-06T21:03:39.449Z,694.53
2019-02-06T21:06:10.124Z,715.87
2019-02-06T21:08:40.902Z,563.58
2019-02-06T21:11:11.654Z,614.08
2019-02-06T21:13:42.437Z,683.83
2019-02-06T21:16:13.198Z,571.25
2019-02-06T21:18:43.970Z,503.65
2019-02-06T21:21:14.722Z,512.10
2019-02-06T21:23:45.499Z,594.90
2019-02-06T21:26:16.263Z,953.03
2019-02-06T21:28:47.450Z,589.08
2019-02-06T21:31:18.194Z,559.27
2019-02-06T21:33:49.762Z,537.00
2019-02-06T21:36:20.514Z,527.62
2019-02-06T21:38:51.286Z,525.97
2019-02-06T21:41:22.029Z,439.25
2019-02-06T21:43:52.798Z,444.65
2019-02-06T21:46:23.546Z,430.60
2019-02-06T21:48:54.323Z,411.95
2019-02-06T21:51:25.097Z,376.77
2019-02-06T21:53:55.854Z,381.43
2019-02-06T21:56:26.807Z,379.60
2019-02-06T21:58:57.578Z,405.35
2019-02-06T22:01:29.761Z,372.30
2019-02-06T22:04:00.464Z,384.05
2019-02-06T22:06:31.206Z,380.50
2019-02-06T22:09:02.298Z,416.88
2019-02-06T22:11:33.066Z,371.95
2019-02-06T22:14:03.864Z,377.90
2019-02-06T22:16:34.684Z,371.30
2019-02-06T22:19:05.470Z,352.57
2019-02-06T22:21:36.614Z,340.73
2019-02-06T22:24:07.529Z,332.48
2019-02-06T22:26:38.212Z,275.23
2019-02-06T22:29:08.982Z,351.33
2019-02-06T22:31:39.726Z,329.53
2019-02-06T22:34:12.911Z,403.25
2019-02-06T22:36:43.590Z,355.98
2019-02-06T22:39:14.373Z,285.10
2019-02-06T22:41:46.565Z,295.47
2019-02-06T22:44:17.337Z,303.33
2019-02-06T22:46:48.105Z,283.60
2019-02-06T22:49:18.885Z,283.17
2019-02-06T22:51:49.625Z,265.68
2019-02-06T22:54:20.406Z,269.17
2019-02-06T22:56:51.157Z,296.65
2019-02-06T22:59:21.935Z,295.40
2019-02-06T23:01:52.985Z,304.83
2019-02-06T23:04:23.686Z,278.30
2019-02-06T23:06:54.512Z,287.45
2019-02-06T23:09:25.358Z,299.15
2019-02-06T23:11:56.112Z,273.27
2019-02-06T23:14:27.290Z,254.05
2019-02-06T23:16:58.033Z,234.63
2019-02-06T23:19:28.732Z,241.97
2019-02-06T23:21:59.497Z,235.15
2019-02-06T23:24:30.204Z,240.10
2019-02-06T23:27:02.482Z,221.50
2019-02-06T23:29:33.254Z,223.90
2019-02-06T23:32:04.128Z,199.12
2019-02-06T23:34:35.775Z,216.03
2019-02-06T23:37:06.506Z,187.70
2019-02-06T23:39:37.282Z,191.03
2019-02-06T23:42:07.943Z,199.17
2019-02-06T23:44:38.642Z,185.40
2019-02-06T23:47:09.383Z,221.53
2019-02-06T23:49:40.079Z,225.18
2019-02-06T23:52:10.753Z,171.40
2019-02-06T23:54:41.442Z,159.07
2019-02-06T23:57:12.109Z,155.52
2019-02-06T23:59:42.807Z,162.07
